createdAt,value
2022-11-17T00:00:28.803Z,6.03
2022-11-17T00:02:55.572Z,6.20
2022-11-17T00:05:22.537Z,8.65
2022-11-17T00:07:50.091Z,5.40
2022-11-17T00:10:17.632Z,6.03
2022-11-17T00:13:02.855Z,6.97
2022-11-17T00:15:29.562Z,8.60
2022-11-17T00:18:15.089Z,6.80
2022-11-17T00:21:00.229Z,7.60
2022-11-17T00:23:47.130Z,7.22
2022-11-17T00:26:25.144Z,5.18
2022-11-17T00:28:53.580Z,7.55
2022-11-17T00:31:38.969Z,7.90
2022-11-17T00:34:06.883Z,9.18
2022-11-17T00:36:33.662Z,9.55
2022-11-17T00:39:00.325Z,7.30
2022-11-17T00:41:27.023Z,7.60
2022-11-17T00:43:53.632Z,8.50
2022-11-17T00:46:20.236Z,9.02
2022-11-17T00:48:46.842Z,8.63
2022-11-17T00:51:13.504Z,9.15
2022-11-17T00:53:40.116Z,9.80
2022-11-17T00:56:06.963Z,9.57
2022-11-17T00:58:35.521Z,9.27
2022-11-17T01:01:02.946Z,10.02
2022-11-17T01:03:29.732Z,10.40
2022-11-17T01:05:56.352Z,7.80
2022-11-17T01:08:22.975Z,9.98
2022-11-17T01:10:49.573Z,10.55
2022-11-17T01:13:17.861Z,9.77
2022-11-17T01:15:44.536Z,9.95
2022-11-17T01:18:11.192Z,10.93
2022-11-17T01:20:37.990Z,9.40
2022-11-17T01:23:04.601Z,9.68
2022-11-17T01:25:31.313Z,9.23
2022-11-17T01:27:57.983Z,12.32
2022-11-17T01:30:24.605Z,11.95
2022-11-17T01:32:51.186Z,12.60
2022-11-17T01:35:17.943Z,12.35
2022-11-17T01:37:44.640Z,11.93
2022-11-17T01:40:13.726Z,12.00
2022-11-17T01:42:40.350Z,12.18
2022-11-17T01:45:24.047Z,13.40
2022-11-17T01:47:57.442Z,13.02
2022-11-17T01:50:27.195Z,12.57
2022-11-17T01:52:56.225Z,11.43
2022-11-17T01:55:24.511Z,11.23
2022-11-17T01:57:56.771Z,12.32
2022-11-17T02:00:23.522Z,13.50
2022-11-17T02:02:50.596Z,13.52
2022-11-17T02:05:17.125Z,12.35
2022-11-17T02:07:44.889Z,11.70
2022-11-17T02:10:11.633Z,12.00
2022-11-17T02:12:38.461Z,13.18
2022-11-17T02:15:06.012Z,13.50
2022-11-17T02:17:36.973Z,14.18
2022-11-17T02:20:06.592Z,11.98
2022-11-17T02:22:39.185Z,15.15
2022-11-17T02:25:34.921Z,13.88
2022-11-17T02:28:17.313Z,11.55
2022-11-17T02:31:11.373Z,12.18
2022-11-17T02:33:55.788Z,11.50
2022-11-17T02:36:56.750Z,12.73
2022-11-17T02:39:27.159Z,11.98
2022-11-17T02:42:02.953Z,10.32
2022-11-17T02:44:52.913Z,11.85
2022-11-17T02:47:24.308Z,11.18
2022-11-17T02:49:55.690Z,13.20
2022-11-17T02:52:22.769Z,12.55
2022-11-17T02:54:49.353Z,11.95
2022-11-17T02:57:37.587Z,13.88
2022-11-17T03:00:06.501Z,11.68
2022-11-17T03:03:00.504Z,12.52
2022-11-17T03:05:50.344Z,12.23
2022-11-17T03:08:44.871Z,13.25
2022-11-17T03:11:11.892Z,11.23
2022-11-17T03:14:03.631Z,10.15
2022-11-17T03:16:56.457Z,11.57
2022-11-17T03:19:31.255Z,12.75
2022-11-17T03:22:05.949Z,11.77
2022-11-17T03:24:56.611Z,14.52
2022-11-17T03:27:29.232Z,13.15
2022-11-17T03:29:59.523Z,12.90
2022-11-17T03:32:28.762Z,12.50
2022-11-17T03:35:18.454Z,14.45
2022-11-17T03:37:52.363Z,13.48
2022-11-17T03:40:21.924Z,14.40
2022-11-17T03:42:54.108Z,13.77
2022-11-17T03:45:26.725Z,12.43
2022-11-17T03:48:29.994Z,13.35
2022-11-17T03:50:59.539Z,12.32
2022-11-17T03:53:26.141Z,11.98
2022-11-17T03:56:29.792Z,12.65
2022-11-17T03:59:15.408Z,11.88
2022-11-17T04:01:42.291Z,10.90
2022-11-17T04:04:17.725Z,13.52
2022-11-17T04:06:44.407Z,13.38
2022-11-17T04:09:11.406Z,14.27
2022-11-17T04:11:56.750Z,14.40
2022-11-17T04:14:41.809Z,12.68
2022-11-17T04:17:08.502Z,14.25
2022-11-17T04:19:35.095Z,13.15
2022-11-17T04:22:01.781Z,14.55
2022-11-17T04:24:28.439Z,15.88
2022-11-17T04:27:13.288Z,12.32
2022-11-17T04:29:39.870Z,12.50
2022-11-17T04:32:06.474Z,13.50
2022-11-17T04:34:33.133Z,13.48
2022-11-17T04:37:03.868Z,11.52
2022-11-17T04:39:34.219Z,13.43
2022-11-17T04:42:03.985Z,13.10
2022-11-17T04:44:31.943Z,14.57
2022-11-17T04:46:58.760Z,13.00
2022-11-17T04:49:26.226Z,14.80
2022-11-17T04:51:53.776Z,12.20
2022-11-17T04:54:24.142Z,11.15
2022-11-17T04:56:51.528Z,12.93
2022-11-17T04:59:18.151Z,11.70
2022-11-17T05:01:45.443Z,11.00
2022-11-17T05:04:39.888Z,13.75
2022-11-17T05:07:08.306Z,12.35
2022-11-17T05:09:35.039Z,12.65
2022-11-17T05:12:20.227Z,13.60
2022-11-17T05:14:49.177Z,12.63
2022-11-17T05:17:16.453Z,13.57
2022-11-17T05:19:45.009Z,10.63
2022-11-17T05:22:36.321Z,14.45
2022-11-17T05:25:04.024Z,11.48
2022-11-17T05:27:30.833Z,13.50
2022-11-17T05:29:57.424Z,15.43
2022-11-17T05:32:24.163Z,13.82
2022-11-17T05:34:50.964Z,16.70
2022-11-17T05:37:17.586Z,14.10
2022-11-17T05:39:44.240Z,15.95
2022-11-17T05:42:10.939Z,15.30
2022-11-17T05:44:37.619Z,16.50
2022-11-17T05:47:04.333Z,15.48
2022-11-17T05:49:30.941Z,14.02
2022-11-17T05:52:00.924Z,17.80
2022-11-17T05:54:27.528Z,17.70
2022-11-17T07:31:34.579Z,16.55
2022-11-17T07:34:01.263Z,13.73
2022-11-17T07:36:28.249Z,15.07
2022-11-17T07:38:54.971Z,11.15
2022-11-17T07:41:21.776Z,10.73
2022-11-17T07:43:48.524Z,14.70
2022-11-17T07:46:15.419Z,16.25
2022-11-17T07:48:43.308Z,14.05
2022-11-17T07:51:10.229Z,14.50
2022-11-17T07:53:36.996Z,16.27
2022-11-17T07:56:09.571Z,14.15
2022-11-17T07:58:37.618Z,13.85
2022-11-17T08:01:06.162Z,14.98
2022-11-17T08:03:33.041Z,15.25
2022-11-17T08:06:06.542Z,15.55
2022-11-17T08:08:34.212Z,15.43
2022-11-17T08:11:06.181Z,14.77
2022-11-17T08:13:33.462Z,16.08
2022-11-17T08:16:00.526Z,16.48
2022-11-17T08:18:27.929Z,14.48
2022-11-17T08:21:11.745Z,16.63
2022-11-17T08:23:38.884Z,14.50
2022-11-17T08:26:07.458Z,15.95
2022-11-17T08:28:34.792Z,15.98
2022-11-17T08:31:05.681Z,17.40
2022-11-17T08:33:33.000Z,16.83
2022-11-17T08:36:01.378Z,16.23
2022-11-17T08:38:31.466Z,16.33
2022-11-17T08:40:59.478Z,15.63
2022-11-17T08:43:26.351Z,14.52
2022-11-17T08:45:53.117Z,16.70
2022-11-17T08:48:20.198Z,14.82
2022-11-17T08:50:47.169Z,14.82
2022-11-17T08:53:19.313Z,14.90
2022-11-17T08:55:46.727Z,13.13
2022-11-17T08:58:13.701Z,17.50
2022-11-17T09:00:41.213Z,15.73
2022-11-17T09:03:09.528Z,15.52
2022-11-17T09:05:41.166Z,16.50
2022-11-17T09:08:30.185Z,10.52
2022-11-17T09:10:55.550Z,18.02
2022-11-17T09:13:22.282Z,15.90
2022-11-17T09:15:49.000Z,16.73
2022-11-17T09:18:15.759Z,15.02
2022-11-17T09:20:45.838Z,15.40
2022-11-17T09:23:12.949Z,16.20
2022-11-17T09:25:40.173Z,13.32
2022-11-17T09:28:07.033Z,13.80
2022-11-17T09:30:33.767Z,15.93
2022-11-17T09:33:00.592Z,16.75
2022-11-17T09:35:27.292Z,14.63
2022-11-17T09:37:59.133Z,15.15
2022-11-17T09:40:25.980Z,15.40
2022-11-17T09:42:52.682Z,14.52
2022-11-17T09:45:25.621Z,14.30
2022-11-17T09:48:18.461Z,14.75
2022-11-17T09:50:45.891Z,13.13
2022-11-17T09:53:37.198Z,15.63
2022-11-17T09:56:06.378Z,15.23
2022-11-17T09:58:41.708Z,15.38
2022-11-17T13:27:04.129Z,13.90
2022-11-17T13:29:30.902Z,13.85
2022-11-17T13:32:21.217Z,13.48
2022-11-17T13:34:54.098Z,14.35
2022-11-17T13:37:28.392Z,12.25
2022-11-17T13:39:56.714Z,13.40
2022-11-17T13:42:26.273Z,14.20
2022-11-17T13:44:58.033Z,16.33
2022-11-17T13:47:40.422Z,12.75
2022-11-17T13:50:29.583Z,16.95
2022-11-17T13:52:58.917Z,13.85
2022-11-17T13:55:27.320Z,13.00
2022-11-17T13:58:08.432Z,13.77
2022-11-17T14:00:35.122Z,15.68
2022-11-17T14:03:04.723Z,15.27
2022-11-17T14:05:32.811Z,14.50
2022-11-17T14:08:12.910Z,14.07
2022-11-17T14:10:40.045Z,13.88
2022-11-17T14:13:06.692Z,13.35
2022-11-17T14:15:38.830Z,24.75
2022-11-17T14:18:31.960Z,13.88
2022-11-17T14:21:25.633Z,13.95
2022-11-17T14:24:02.574Z,12.57
2022-11-17T14:26:29.902Z,13.00
2022-11-17T14:29:02.250Z,13.65
2022-11-17T14:31:30.599Z,14.48
2022-11-17T14:33:57.377Z,13.10
2022-11-17T14:36:24.259Z,12.60
2022-11-17T14:38:51.082Z,12.73
2022-11-17T14:41:19.279Z,13.35
2022-11-17T14:43:46.459Z,13.32
2022-11-17T14:46:19.638Z,13.52
2022-11-17T14:48:46.468Z,12.65
2022-11-17T14:51:15.961Z,15.15
2022-11-17T14:53:44.182Z,14.07
2022-11-17T14:56:11.067Z,14.32
2022-11-17T14:58:37.712Z,13.43
2022-11-17T15:01:38.667Z,13.60
2022-11-17T15:04:21.118Z,16.08
2022-11-17T15:06:53.288Z,12.60
2022-11-17T15:09:20.670Z,12.20
2022-11-17T15:11:48.338Z,13.15
2022-11-17T15:14:15.391Z,12.77
2022-11-17T15:16:42.279Z,13.43
2022-11-17T15:19:08.919Z,13.38
2022-11-17T15:21:35.540Z,14.82
2022-11-17T15:24:03.463Z,10.60
2022-11-17T15:26:30.295Z,16.25
2022-11-17T15:29:01.218Z,12.63
2022-11-17T15:31:27.971Z,11.02
2022-11-17T15:33:54.612Z,12.73
2022-11-17T15:36:22.977Z,10.57
2022-11-17T15:38:49.979Z,11.73
2022-11-17T15:41:16.947Z,14.18
2022-11-17T15:43:44.680Z,13.93
2022-11-17T15:46:13.444Z,12.85
2022-11-17T15:48:44.609Z,14.38
2022-11-17T15:51:13.886Z,12.68
2022-11-17T15:53:41.152Z,13.48
2022-11-17T15:56:11.544Z,10.82
2022-11-17T15:58:38.972Z,12.40
2022-11-17T16:01:26.184Z,12.90
2022-11-17T16:03:57.519Z,14.82
2022-11-17T16:06:24.304Z,11.20
2022-11-17T16:08:51.049Z,12.52
2022-11-17T16:11:17.725Z,12.05
2022-11-17T16:13:44.343Z,11.15
2022-11-17T16:16:13.411Z,14.68
2022-11-17T16:18:40.300Z,12.70
2022-11-17T19:30:09.311Z,13.35
2022-11-17T19:32:36.080Z,10.35
2022-11-17T19:35:13.575Z,10.82
2022-11-17T19:37:41.458Z,9.73
2022-11-17T19:40:08.906Z,10.00
2022-11-17T19:42:35.696Z,11.63
2022-11-17T19:45:02.381Z,10.93
2022-11-17T19:47:29.054Z,10.52
2022-11-17T19:49:55.872Z,9.25
2022-11-17T19:52:22.609Z,10.75
2022-11-17T19:54:49.430Z,12.57
2022-11-17T19:57:16.315Z,10.32
2022-11-17T19:59:42.993Z,11.00
2022-11-17T20:02:13.292Z,11.23
2022-11-17T20:04:40.111Z,10.18
2022-11-17T20:07:10.812Z,10.35
2022-11-17T20:09:37.612Z,8.68
2022-11-17T20:12:05.568Z,10.23
2022-11-17T20:14:32.702Z,10.38
2022-11-17T20:16:59.688Z,11.95
2022-11-17T20:19:27.258Z,10.27
2022-11-17T20:21:54.728Z,9.75
2022-11-17T20:24:21.454Z,9.77
2022-11-17T20:26:49.131Z,10.20
2022-11-17T20:29:16.147Z,10.00
2022-11-17T20:31:43.262Z,9.80
2022-11-17T20:34:12.159Z,9.82
2022-11-17T20:36:39.011Z,10.18
2022-11-17T20:39:06.887Z,10.38
2022-11-17T20:41:34.002Z,11.57
2022-11-17T20:44:01.032Z,10.23
2022-11-17T20:46:28.095Z,10.73
2022-11-17T20:48:55.060Z,9.45
2022-11-17T20:51:23.439Z,10.68
2022-11-17T20:53:51.187Z,10.55
2022-11-17T20:56:18.722Z,8.63
2022-11-17T20:58:45.684Z,9.32
2022-11-17T21:01:14.870Z,9.93
2022-11-17T21:03:42.013Z,8.88
2022-11-17T21:06:09.645Z,8.98
2022-11-17T21:08:38.977Z,9.20
2022-11-17T21:11:11.089Z,9.35
2022-11-17T21:13:38.433Z,9.15
2022-11-17T21:16:08.060Z,8.65
2022-11-17T21:18:36.042Z,8.02
